createdAt,value
2024-02-21T00:00:12.713Z,4.83
2024-02-21T00:05:15.528Z,4.87
2024-02-21T00:10:18.316Z,4.86
2024-02-21T00:15:21.026Z,4.85
2024-02-21T00:20:24.043Z,4.87
2024-02-21T00:25:27.359Z,4.79
2024-02-21T00:30:30.027Z,4.78
2024-02-21T00:35:32.763Z,4.77
2024-02-21T00:40:35.433Z,4.78
2024-02-21T00:45:37.892Z,4.85
2024-02-21T00:50:40.483Z,4.86
2024-02-21T00:55:44.480Z,4.81
2024-02-21T01:00:46.986Z,4.81
2024-02-21T01:05:49.399Z,4.84
2024-02-21T01:10:52.622Z,4.85
2024-02-21T01:15:55.228Z,4.81
2024-02-21T01:20:57.728Z,4.82
2024-02-21T01:26:00.244Z,4.84
2024-02-21T01:31:03.049Z,4.81
2024-02-21T01:36:05.845Z,4.78
2024-02-21T01:41:08.673Z,4.76
2024-02-21T01:46:11.559Z,4.82
2024-02-21T01:51:14.226Z,4.84
2024-02-21T01:56:16.683Z,4.84
2024-02-21T02:01:21.726Z,4.91
2024-02-21T02:06:24.903Z,4.94
2024-02-21T02:11:27.693Z,4.90
2024-02-21T02:16:31.037Z,4.86
2024-02-21T02:21:33.717Z,4.93
2024-02-21T02:26:36.163Z,4.93
2024-02-21T02:31:40.038Z,4.86
2024-02-21T02:36:42.480Z,4.92
2024-02-21T02:41:46.103Z,4.97
2024-02-21T02:46:48.602Z,4.95
2024-02-21T02:51:51.138Z,4.97
2024-02-21T02:56:53.879Z,4.93
2024-02-21T03:01:56.765Z,4.87
2024-02-21T03:06:59.669Z,4.86
2024-02-21T03:12:04.605Z,4.87
2024-02-21T03:17:07.041Z,4.86
2024-02-21T03:22:09.531Z,4.86
2024-02-21T03:27:11.985Z,4.91
2024-02-21T03:32:14.705Z,4.90
2024-02-21T03:37:17.382Z,4.90
2024-02-21T03:42:19.806Z,4.87
2024-02-21T03:47:22.337Z,4.88
2024-02-21T03:52:24.873Z,4.91
2024-02-21T03:57:27.673Z,4.88
2024-02-21T04:02:30.632Z,4.94
2024-02-21T04:07:33.288Z,4.90
2024-02-21T04:12:37.277Z,4.93
2024-02-21T04:17:39.922Z,4.83
2024-02-21T04:22:42.409Z,4.77
2024-02-21T04:27:44.971Z,4.76
2024-02-21T04:32:47.405Z,4.71
2024-02-21T04:37:50.075Z,4.64
2024-02-21T04:42:52.526Z,4.57
2024-02-21T04:47:55.379Z,4.53
2024-02-21T04:52:57.899Z,4.36
2024-02-21T04:58:01.677Z,4.29
2024-02-21T05:03:04.032Z,4.17
2024-02-21T05:08:06.813Z,4.09
2024-02-21T05:13:10.908Z,4.09
2024-02-21T05:18:13.475Z,4.05
2024-02-21T05:23:15.924Z,4.03
2024-02-21T05:28:18.405Z,4.02
2024-02-21T05:33:22.883Z,4.11
2024-02-21T05:38:25.707Z,4.14
2024-02-21T05:43:28.365Z,4.16
2024-02-21T05:48:32.156Z,4.21
2024-02-21T05:53:37.743Z,4.18
2024-02-21T05:58:40.447Z,4.10
2024-02-21T06:03:43.118Z,3.96
2024-02-21T06:08:45.915Z,3.81
2024-02-21T06:13:48.410Z,3.72
2024-02-21T06:18:50.979Z,3.77
2024-02-21T06:23:53.470Z,3.92
2024-02-21T06:28:56.310Z,4.16
2024-02-21T06:33:58.914Z,4.29
2024-02-21T06:39:01.817Z,4.30
2024-02-21T06:44:04.896Z,4.36
2024-02-21T06:49:07.561Z,4.57
2024-02-21T06:54:10.634Z,4.71
2024-02-21T06:59:16.843Z,4.84
2024-02-21T07:04:19.433Z,4.91
2024-02-21T07:09:21.876Z,4.97
2024-02-21T07:14:24.286Z,5.08
2024-02-21T07:19:26.899Z,5.43
2024-02-21T07:24:29.407Z,5.60
2024-02-21T07:29:32.040Z,5.68
2024-02-21T07:34:34.598Z,5.58
2024-02-21T07:39:37.152Z,5.33
2024-02-21T07:44:39.587Z,5.22
2024-02-21T07:49:42.192Z,5.24
2024-02-21T07:54:44.661Z,5.19
2024-02-21T07:59:49.375Z,5.51
2024-02-21T08:04:52.181Z,5.50
2024-02-21T08:09:54.775Z,5.39
2024-02-21T08:14:57.254Z,5.45
2024-02-21T08:19:59.860Z,5.61
2024-02-21T08:25:02.263Z,5.81
2024-02-21T08:30:05.121Z,6.02
2024-02-21T08:35:07.748Z,6.32
2024-02-21T08:40:10.749Z,6.49
2024-02-21T08:45:13.249Z,6.67
2024-02-21T08:50:23.584Z,6.81
2024-02-21T08:55:31.241Z,6.85
2024-02-21T09:00:34.065Z,6.97
2024-02-21T09:05:36.629Z,7.23
2024-02-21T09:10:39.372Z,7.29
2024-02-21T09:15:42.024Z,7.55
2024-02-21T09:20:44.678Z,7.72
2024-02-21T09:25:47.206Z,7.81
2024-02-21T09:30:49.840Z,7.97
2024-02-21T09:35:52.436Z,8.00
2024-02-21T09:40:55.305Z,8.19
2024-02-21T09:45:57.964Z,8.24
2024-02-21T09:51:00.521Z,8.43
2024-02-21T09:56:03.202Z,8.70
2024-02-21T10:01:16.842Z,8.87
2024-02-21T10:06:24.081Z,9.05
2024-02-21T10:11:26.664Z,9.27
2024-02-21T10:16:29.446Z,9.35
2024-02-21T10:21:32.314Z,9.25
2024-02-21T10:26:34.901Z,9.32
2024-02-21T10:31:37.925Z,9.46
2024-02-21T10:36:40.712Z,9.64
2024-02-21T10:41:43.392Z,9.88
2024-02-21T10:46:46.326Z,10.19
2024-02-21T10:51:48.854Z,10.33
2024-02-21T10:56:51.748Z,10.69
2024-02-21T11:01:58.867Z,10.77
2024-02-21T11:07:02.107Z,10.97
2024-02-21T11:12:04.941Z,11.10
2024-02-21T11:17:07.930Z,11.14
2024-02-21T11:22:10.828Z,11.24
2024-02-21T11:27:13.395Z,11.36
2024-02-21T11:32:16.485Z,11.72
2024-02-21T11:37:19.174Z,12.10
2024-02-21T11:42:21.823Z,12.23
2024-02-21T11:47:24.374Z,12.34
2024-02-21T11:52:27.457Z,12.40
2024-02-21T11:57:30.516Z,12.52
2024-02-21T12:02:33.293Z,12.56
2024-02-21T12:07:36.672Z,12.50
2024-02-21T12:12:40.161Z,12.54
2024-02-21T12:17:43.225Z,12.49
2024-02-21T12:22:46.155Z,12.48
2024-02-21T12:27:50.095Z,12.51
2024-02-21T12:32:52.664Z,12.31
2024-02-21T12:37:55.186Z,12.36
2024-02-21T12:42:57.888Z,12.36
2024-02-21T12:48:00.326Z,12.33
2024-02-21T12:53:02.834Z,12.42
2024-02-21T12:58:05.362Z,12.32
2024-02-21T13:03:08.139Z,12.34
2024-02-21T13:08:10.777Z,12.37
2024-02-21T13:13:13.333Z,12.53
2024-02-21T13:18:15.929Z,12.44
2024-02-21T13:23:18.361Z,12.68
2024-02-21T13:28:20.888Z,12.62
2024-02-21T13:33:23.418Z,12.64
2024-02-21T13:38:26.109Z,12.58
2024-02-21T13:43:28.912Z,12.59
2024-02-21T13:48:31.580Z,12.73
2024-02-21T13:53:35.268Z,12.80
2024-02-21T13:58:38.579Z,12.76
2024-02-21T14:03:41.035Z,12.86
2024-02-21T14:08:43.741Z,12.99
2024-02-21T14:13:46.289Z,12.79
2024-02-21T14:18:48.981Z,12.79
2024-02-21T14:23:51.626Z,12.63
2024-02-21T14:28:54.399Z,12.58
2024-02-21T14:33:57.074Z,12.62
2024-02-21T14:39:00.240Z,12.56
2024-02-21T14:44:05.112Z,12.49
2024-02-21T14:49:07.777Z,12.45
2024-02-21T14:54:10.733Z,12.45
2024-02-21T14:59:18.509Z,12.61
2024-02-21T15:04:29.054Z,12.65
2024-02-21T15:09:33.627Z,12.38
2024-02-21T15:14:36.698Z,12.54
2024-02-21T15:19:40.522Z,12.53
2024-02-21T15:24:43.616Z,12.39
2024-02-21T15:29:46.110Z,12.22
2024-02-21T15:34:48.938Z,12.22
2024-02-21T15:39:51.547Z,12.09
2024-02-21T15:44:54.180Z,11.84
2024-02-21T15:49:56.612Z,11.79
2024-02-21T15:54:59.223Z,11.58
2024-02-21T16:00:01.650Z,11.50
2024-02-21T16:05:10.073Z,11.36
2024-02-21T16:10:13.026Z,11.24
2024-02-21T16:15:15.538Z,11.12
2024-02-21T16:20:18.198Z,11.04
2024-02-21T16:25:20.814Z,10.89
2024-02-21T16:30:24.535Z,10.75
2024-02-21T16:35:29.240Z,10.61
2024-02-21T16:40:31.870Z,10.45
2024-02-21T16:45:34.844Z,10.31
2024-02-21T16:50:45.221Z,10.24
2024-02-21T16:55:51.999Z,10.15
2024-02-21T17:00:54.471Z,9.91
2024-02-21T17:06:07.043Z,9.81
2024-02-21T17:11:16.933Z,9.65
2024-02-21T17:16:19.819Z,9.55
2024-02-21T17:21:22.203Z,9.47
2024-02-21T17:26:24.919Z,9.34
2024-02-21T17:31:28.972Z,9.17
2024-02-21T17:36:31.437Z,9.05
2024-02-21T17:41:33.872Z,8.90
2024-02-21T17:46:41.084Z,8.78
2024-02-21T17:51:43.695Z,8.62
2024-02-21T17:56:46.112Z,8.53
2024-02-21T18:01:48.543Z,8.49
2024-02-21T18:06:51.209Z,8.36
2024-02-21T18:11:53.956Z,8.41
2024-02-21T18:16:56.676Z,8.39
2024-02-21T18:22:00.050Z,8.50
2024-02-21T18:27:02.416Z,8.48
2024-02-21T18:32:05.010Z,8.43
2024-02-21T18:37:07.442Z,8.42
2024-02-21T18:42:09.866Z,8.45
2024-02-21T18:47:13.306Z,8.43
2024-02-21T18:52:15.785Z,8.36
2024-02-21T18:57:18.165Z,8.19
2024-02-21T19:02:21.144Z,8.05
2024-02-21T19:07:23.804Z,8.02
2024-02-21T19:12:27.490Z,7.98
2024-02-21T19:17:31.316Z,7.86
2024-02-21T19:22:37.334Z,7.71
2024-02-21T19:27:41.145Z,7.69
2024-02-21T19:32:43.724Z,7.70
2024-02-21T19:37:46.170Z,7.80
2024-02-21T19:42:48.599Z,7.80
2024-02-21T19:47:51.168Z,7.70
2024-02-21T19:52:56.716Z,7.69
2024-02-21T19:57:59.899Z,7.63
2024-02-21T20:03:04.424Z,7.61
2024-02-21T20:08:07.256Z,7.57
2024-02-21T20:13:10.048Z,7.59
2024-02-21T20:18:13.512Z,7.65
2024-02-21T20:23:17.019Z,7.79
2024-02-21T20:28:19.508Z,7.82
2024-02-21T20:33:22.246Z,7.93
2024-02-21T20:38:24.790Z,7.93
2024-02-21T20:43:27.250Z,8.02
2024-02-21T20:48:32.127Z,8.06
2024-02-21T20:53:34.496Z,8.13
2024-02-21T20:58:36.974Z,8.19
2024-02-21T21:03:39.962Z,8.22
2024-02-21T21:08:42.472Z,8.29
2024-02-21T21:13:44.995Z,8.31
2024-02-21T21:18:47.562Z,8.28
2024-02-21T21:23:50.012Z,8.28
2024-02-21T21:28:57.625Z,8.30
2024-02-21T21:34:00.244Z,8.25
2024-02-21T21:39:05.923Z,8.29
2024-02-21T21:44:08.408Z,8.29
2024-02-21T21:49:10.925Z,8.34
2024-02-21T21:54:13.395Z,8.39
2024-02-21T21:59:15.786Z,8.40
2024-02-21T22:04:19.392Z,8.41
2024-02-21T22:09:21.953Z,8.45
2024-02-21T22:14:24.452Z,8.51
2024-02-21T22:19:26.996Z,8.52
2024-02-21T22:24:29.538Z,8.53
2024-02-21T22:29:31.964Z,8.59
2024-02-21T22:34:34.710Z,8.61
2024-02-21T22:39:37.498Z,8.66
2024-02-21T22:44:39.976Z,8.69
2024-02-21T22:49:42.549Z,8.84
2024-02-21T22:54:44.990Z,8.81
2024-02-21T22:59:47.809Z,8.86
2024-02-21T23:04:50.352Z,8.82
2024-02-21T23:09:52.763Z,8.79
2024-02-21T23:14:55.161Z,8.84
2024-02-21T23:19:57.659Z,8.94
2024-02-21T23:25:00.031Z,8.97
2024-02-21T23:30:02.486Z,9.03
2024-02-21T23:35:05.872Z,9.06
2024-02-21T23:40:11.125Z,9.08
2024-02-21T23:45:13.583Z,9.05
2024-02-21T23:50:16.037Z,9.00
2024-02-21T23:55:18.426Z,9.05
